MST,Max TemperatureF,Mean TemperatureF,Min TemperatureF,Max Dew PointF,MeanDew PointF,Min DewpointF,Max Humidity, Mean Humidity, Min Humidity, Max Sea Level PressureIn, Mean Sea Level PressureIn, Min Sea Level PressureIn, Max VisibilityMiles, Mean VisibilityMiles, Min VisibilityMiles, Max Wind SpeedMPH, Mean Wind SpeedMPH, Max Gust SpeedMPH,PrecipitationIn, CloudCover, Events, WindDirDegrees
2012-11-1,50,45,39,46,42,37,100,90,80,30.00,29.86,29.78,10,6,0,17,4,23,0.02,7,Fog-Rain,193
2012-11-2,49,41,32,42,40,33,100,86,71,30.17,30.12,30.01,10,10,5,10,3,20,0.00,7,,182
2012-11-3,46,38,30,43,35,30,100,92,83,30.18,30.12,30.09,10,5,0,8,2,12,0.09,8,Fog-Rain,201
2012-11-4,57,50,43,46,45,42,93,82,71,30.33,30.26,30.10,10,10,10,14,6,17,0.01,8,,179
2012-11-5,66,50,33,47,41,33,92,64,36,30.24,30.17,30.11,10,10,10,18,8,24,T,3,,204
2012-11-6,58,45,32,43,39,32,100,79,57,30.25,30.09,29.87,10,10,10,7,0,8,T,3,Rain,110
2012-11-7,52,39,25,47,31,23,93,63,33,30.06,29.91,29.76,10,10,7,18,7,26,0.09,5,Rain,232
2012-11-8,39,31,22,27,23,17,100,74,48,30.04,29.89,29.78,10,8,2,30,13,37,T,5,Snow,35
2012-11-9,31,26,21,18,10,5,69,58,47,30.01,29.93,29.83,10,10,10,30,20,37,0.00,8,,27
2012-11-10,28,22,16,12,6,3,74,56,38,30.17,30.09,30.01,10,10,10,21,6,24,0.00,7,,14
2012-11-11,30,25,20,21,17,11,77,68,58,30.39,30.29,30.18,10,10,9,17,2,18,T,8,Snow,183
2012-11-12,33,30,27,30,28,21,100,85,69,30.37,30.24,30.17,10,5,1,17,3,39,0.07,8,Snow,232
2012-11-13,41,34,27,36,32,27,100,87,73,30.30,30.22,30.13,10,9,6,10,3,15,T,8,Rain,193
2012-11-14,45,34,22,37,33,22,100,85,70,30.35,30.21,30.12,10,10,10,13,5,14,T,6,Rain,179
2012-11-15,46,33,19,31,23,18,100,77,53,30.38,30.26,30.05,10,7,0,81,1,156,0.00,3,Fog,247
2012-11-16,43,35,26,33,29,25,100,85,70,30.07,30.03,29.96,10,10,6,6,0,18,0.00,7,,280
2012-11-17,45,34,23,35,28,21,100,85,70,30.03,29.90,29.65,10,4,0,17,1,23,T,5,Fog-Rain,38
2012-11-18,47,37,27,36,28,24,92,69,45,30.00,29.86,29.60,10,10,7,21,8,26,0.04,4,,200
2012-11-19,47,37,26,40,33,24,100,88,76,30.00,29.92,29.79,10,9,2,21,4,26,0.18,7,Rain,174
2012-11-20,49,44,38,43,41,38,100,86,71,29.85,29.79,29.75,10,9,4,21,5,25,0.41,8,Rain,179
2012-11-21,46,39,31,40,36,26,100,79,57,30.02,29.76,29.66,10,10,6,22,5,29,0.23,7,Rain,213
2012-11-22,41,33,24,26,24,22,92,70,48,30.54,30.39,30.06,10,10,10,16,5,18,0.00,5,,210
2012-11-23,36,31,26,31,27,25,92,81,70,30.48,30.29,30.04,10,10,9,22,1,55,0.03,7,Rain,52
2012-11-24,40,35,29,39,33,28,100,96,92,30.12,30.06,29.98,10,7,0,14,5,20,0.18,8,Fog-Rain,178
2012-11-25,38,30,22,30,28,21,100,82,64,30.37,30.13,30.01,10,6,0,9,1,10,T,7,Fog,224
2012-11-26,36,27,18,26,20,17,100,82,64,30.40,30.31,30.26,10,8,1,5,0,6,0.00,3,,290
2012-11-27,32,25,18,27,23,17,96,84,72,30.36,30.27,30.19,10,10,10,3,0,5,0.00,6,,-1
2012-11-28,38,29,20,29,26,20,100,82,64,30.22,30.05,29.90,10,10,8,29,0,117,0.00,2,,135
2012-11-29,40,35,30,35,32,28,100,90,79,29.97,29.89,29.79,10,7,0,12,1,23,0.05,8,Fog-Rain,307
2012-11-30,45,39,33,41,37,33,100,95,89,29.77,29.66,29.58,10,5,1,17,5,22,0.13,7,Rain,209